createdAt,value
2023-04-26T00:02:18.640Z,5.83
2023-04-26T00:04:47.512Z,5.90
2023-04-26T00:07:15.864Z,6.27
2023-04-26T00:09:44.602Z,5.90
2023-04-26T00:12:12.069Z,6.10
2023-04-26T00:14:39.054Z,6.57
2023-04-26T00:17:06.211Z,7.17
2023-04-26T00:19:33.261Z,6.03
2023-04-26T00:22:00.465Z,5.23
2023-04-26T00:24:27.499Z,7.00
2023-04-26T00:26:57.419Z,6.40
2023-04-26T00:29:24.362Z,6.17
2023-04-26T00:31:51.294Z,5.13
2023-04-26T00:34:18.412Z,6.50
2023-04-26T00:36:46.124Z,7.90
2023-04-26T00:39:13.202Z,7.27
2023-04-26T00:41:40.061Z,6.00
2023-04-26T00:44:07.373Z,6.00
2023-04-26T00:46:34.370Z,6.57
2023-04-26T00:49:01.268Z,7.27
2023-04-26T00:51:28.388Z,7.43
2023-04-26T00:53:55.501Z,6.77
2023-04-26T00:56:24.800Z,7.43
2023-04-26T00:58:52.170Z,7.43
2023-04-26T01:01:20.063Z,7.30
2023-04-26T01:03:48.350Z,6.43
2023-04-26T01:06:15.581Z,6.23
2023-04-26T01:08:42.548Z,6.63
2023-04-26T01:11:09.614Z,5.80
2023-04-26T01:13:37.612Z,6.97
2023-04-26T01:16:07.513Z,6.70
2023-04-26T01:18:35.492Z,6.43
2023-04-26T01:21:04.731Z,7.40
2023-04-26T01:23:32.328Z,5.93
2023-04-26T01:25:59.194Z,6.10
2023-04-26T01:28:26.096Z,7.43
2023-04-26T01:30:53.346Z,6.80
2023-04-26T01:33:20.716Z,5.80
2023-04-26T01:35:47.581Z,7.70
2023-04-26T01:38:14.691Z,7.03
2023-04-26T01:40:44.122Z,7.97
2023-04-26T01:43:11.653Z,7.57
2023-04-26T01:45:38.533Z,7.20
2023-04-26T01:48:06.027Z,6.60
2023-04-26T01:50:33.137Z,6.63
2023-04-26T01:52:59.965Z,6.90
2023-04-26T01:55:26.895Z,7.30
2023-04-26T01:57:53.725Z,7.97
2023-04-26T02:00:20.709Z,7.20
2023-04-26T02:02:47.709Z,7.87
2023-04-26T02:05:14.695Z,7.57
2023-04-26T02:07:41.606Z,8.10
2023-04-26T02:10:09.070Z,7.13
2023-04-26T02:12:36.520Z,8.17
2023-04-26T02:15:03.565Z,8.80
2023-04-26T02:17:30.773Z,7.57
2023-04-26T02:19:57.800Z,6.43
2023-04-26T02:22:28.036Z,8.27
2023-04-26T02:24:54.963Z,6.73
2023-04-26T02:27:21.831Z,6.53
2023-04-26T02:29:48.979Z,7.20
2023-04-26T02:32:15.957Z,7.80
2023-04-26T02:34:44.825Z,9.30
2023-04-26T02:37:11.810Z,9.50
2023-04-26T02:39:38.771Z,7.73
2023-04-26T02:42:10.700Z,7.10
2023-04-26T02:44:39.885Z,9.43
2023-04-26T02:47:07.053Z,7.43
2023-04-26T02:49:34.286Z,8.37
2023-04-26T02:52:01.108Z,7.43
2023-04-26T02:54:27.981Z,8.53
2023-04-26T02:56:55.782Z,7.77
2023-04-26T02:59:22.617Z,6.60
2023-04-26T03:01:49.833Z,7.10
2023-04-26T03:04:17.808Z,6.80
2023-04-26T03:06:44.960Z,7.97
2023-04-26T03:09:11.826Z,6.80
2023-04-26T03:11:38.662Z,6.80
2023-04-26T03:14:05.655Z,8.47
2023-04-26T03:16:42.730Z,7.77
2023-04-26T03:19:10.073Z,7.43
2023-04-26T03:21:37.203Z,7.33
2023-04-26T03:24:04.690Z,8.77
2023-04-26T03:26:31.524Z,8.47
2023-04-26T03:28:58.479Z,8.50
2023-04-26T03:31:25.591Z,8.90
2023-04-26T03:33:52.752Z,7.40
2023-04-26T03:36:19.584Z,9.07
2023-04-26T03:38:46.762Z,8.00
2023-04-26T03:41:13.903Z,8.73
2023-04-26T03:43:40.944Z,8.20
2023-04-26T03:46:08.177Z,8.80
2023-04-26T03:48:35.106Z,8.33
2023-04-26T03:51:02.823Z,8.40
2023-04-26T03:53:29.714Z,8.50
2023-04-26T03:55:56.903Z,8.23
2023-04-26T03:58:27.065Z,8.43
2023-04-26T04:00:58.574Z,7.90
2023-04-26T04:03:25.703Z,9.50
2023-04-26T04:05:52.926Z,10.17
2023-04-26T04:08:19.782Z,10.20
2023-04-26T04:10:46.889Z,8.50
2023-04-26T04:13:13.859Z,8.40
2023-04-26T04:15:40.847Z,11.97
2023-04-26T04:18:07.877Z,10.03
2023-04-26T04:20:34.801Z,8.77
2023-04-26T04:23:04.380Z,10.50
2023-04-26T04:25:31.206Z,9.60
2023-04-26T04:27:58.379Z,10.80
2023-04-26T04:30:26.320Z,8.63
2023-04-26T04:32:53.665Z,9.03
2023-04-26T04:35:42.080Z,9.97
2023-04-26T04:38:09.155Z,9.10
2023-04-26T04:40:36.156Z,8.50
2023-04-26T04:43:03.333Z,9.77
2023-04-26T04:45:30.307Z,8.67
2023-04-26T04:47:57.512Z,9.60
2023-04-26T04:50:24.531Z,10.50
2023-04-26T04:52:51.710Z,9.77
2023-04-26T04:55:18.648Z,8.50
2023-04-26T04:57:45.603Z,8.90
2023-04-26T05:00:13.171Z,9.47
2023-04-26T05:02:40.078Z,9.37
2023-04-26T05:05:08.165Z,9.90
2023-04-26T05:07:35.219Z,9.47
2023-04-26T05:10:02.972Z,10.17
2023-04-26T05:12:30.016Z,11.27
2023-04-26T05:14:59.959Z,10.80
2023-04-26T05:17:26.939Z,11.03
2023-04-26T05:19:53.903Z,12.97
2023-04-26T05:22:22.291Z,12.73
2023-04-26T05:24:49.386Z,9.80
2023-04-26T05:27:16.468Z,12.63
2023-04-26T05:29:43.331Z,10.07
2023-04-26T05:32:10.481Z,11.73
2023-04-26T05:34:38.611Z,13.33
2023-04-26T05:37:05.556Z,13.97
2023-04-26T05:39:32.491Z,13.33
2023-04-26T05:41:59.541Z,13.13
2023-04-26T05:44:26.491Z,15.30
2023-04-26T05:46:53.496Z,12.00
2023-04-26T05:49:20.652Z,12.40
2023-04-26T05:51:48.598Z,11.63
2023-04-26T05:54:15.452Z,12.33
2023-04-26T05:56:42.626Z,12.17
2023-04-26T05:59:09.722Z,12.00
2023-04-26T06:01:36.661Z,14.80
2023-04-26T06:04:03.878Z,14.10
2023-04-26T06:06:32.091Z,13.27
2023-04-26T06:08:58.955Z,14.80
2023-04-26T06:11:26.869Z,13.57
2023-04-26T06:13:54.413Z,15.43
2023-04-26T06:16:22.988Z,14.13
2023-04-26T06:18:50.036Z,14.30
2023-04-26T06:21:16.928Z,14.60
2023-04-26T06:23:43.909Z,14.77
2023-04-26T06:26:10.736Z,14.70
2023-04-26T06:28:37.814Z,14.43
2023-04-26T06:31:04.745Z,14.63
2023-04-26T06:33:32.000Z,15.90
2023-04-26T06:35:58.828Z,14.17
2023-04-26T06:38:25.758Z,14.57
2023-04-26T06:40:52.631Z,14.00
2023-04-26T06:43:19.574Z,11.97
2023-04-26T06:45:46.567Z,11.80
2023-04-26T06:48:16.483Z,12.57
2023-04-26T06:50:43.410Z,10.83
2023-04-26T06:53:10.353Z,11.20
2023-04-26T06:55:37.261Z,9.80
2023-04-26T06:58:04.956Z,10.23
2023-04-26T07:00:31.891Z,9.83
2023-04-26T07:02:58.932Z,11.37
2023-04-26T07:05:26.088Z,11.40
2023-04-26T07:07:53.426Z,11.03
2023-04-26T07:10:21.225Z,11.33
2023-04-26T07:12:48.786Z,9.80
2023-04-26T07:15:16.015Z,10.30
2023-04-26T07:17:43.069Z,10.00
2023-04-26T07:20:10.417Z,10.13
2023-04-26T07:22:37.519Z,9.47
2023-04-26T07:25:05.514Z,8.63
2023-04-26T07:27:32.792Z,7.20
2023-04-26T07:29:59.629Z,8.10
2023-04-26T07:32:26.591Z,7.70
2023-04-26T07:34:53.863Z,7.00
2023-04-26T07:37:20.946Z,7.60
2023-04-26T07:39:47.830Z,7.27
2023-04-26T07:42:15.573Z,6.60
2023-04-26T07:44:42.582Z,5.40
2023-04-26T07:47:14.233Z,5.40
2023-04-26T07:49:41.447Z,5.90
2023-04-26T07:52:11.478Z,5.00
2023-04-26T07:54:40.201Z,5.27
2023-04-26T07:57:07.108Z,5.20
2023-04-26T07:59:34.629Z,5.40
2023-04-26T08:02:01.704Z,5.87
2023-04-26T08:04:34.500Z,5.30
2023-04-26T08:07:02.438Z,6.03
2023-04-26T08:09:30.691Z,4.70
2023-04-26T08:11:57.871Z,3.60
2023-04-26T08:14:25.471Z,4.20
2023-04-26T08:16:52.434Z,5.37
2023-04-26T08:19:19.521Z,4.80
2023-04-26T08:21:46.410Z,5.63
2023-04-26T08:24:13.760Z,4.17
2023-04-26T08:26:41.205Z,4.50
2023-04-26T08:29:08.661Z,4.70
2023-04-26T08:31:36.123Z,4.87
2023-04-26T08:34:03.059Z,4.03
2023-04-26T08:36:30.598Z,4.30
2023-04-26T08:38:58.114Z,4.70
2023-04-26T08:41:26.364Z,4.40
2023-04-26T08:43:56.140Z,4.47
2023-04-26T08:46:25.503Z,5.10
2023-04-26T08:49:06.272Z,3.40
2023-04-26T08:51:35.109Z,3.33
2023-04-26T08:54:04.965Z,3.67
2023-04-26T08:56:35.415Z,3.10
2023-04-26T08:59:02.370Z,3.40
2023-04-26T09:01:32.106Z,3.40
2023-04-26T09:04:00.863Z,3.10
2023-04-26T09:06:28.461Z,2.90
2023-04-26T09:08:57.216Z,3.57
2023-04-26T09:11:24.117Z,2.20
2023-04-26T09:13:51.425Z,2.80
2023-04-26T09:16:18.553Z,2.80
2023-04-26T09:18:52.689Z,2.63
2023-04-26T09:21:20.568Z,2.63
2023-04-26T09:24:02.049Z,2.97
2023-04-26T09:26:29.300Z,2.97
2023-04-26T09:29:13.076Z,3.50
2023-04-26T09:31:48.694Z,2.17
2023-04-26T09:34:16.731Z,2.83
2023-04-26T09:36:56.973Z,2.60
2023-04-26T09:39:51.165Z,2.77
2023-04-26T09:42:19.773Z,3.20
2023-04-26T09:44:46.864Z,3.43
2023-04-26T09:47:14.007Z,3.00
2023-04-26T09:49:51.024Z,2.40
2023-04-26T09:52:19.222Z,2.83
2023-04-26T09:54:48.354Z,2.50
2023-04-26T09:57:16.749Z,2.50
2023-04-26T09:59:46.202Z,2.57
2023-04-26T10:02:24.260Z,3.33
2023-04-26T10:04:53.860Z,3.33
2023-04-26T10:07:23.916Z,3.53
2023-04-26T10:09:51.361Z,2.63
2023-04-26T10:12:20.170Z,3.20
2023-04-26T10:14:48.773Z,3.63
2023-04-26T10:17:16.646Z,3.03
2023-04-26T10:19:44.611Z,2.77
2023-04-26T10:22:29.054Z,2.67
2023-04-26T10:24:56.195Z,2.53
2023-04-26T10:27:48.020Z,2.00
2023-04-26T10:30:17.082Z,1.97
2023-04-26T10:33:16.557Z,2.43
2023-04-26T10:36:00.910Z,2.63
2023-04-26T10:38:27.910Z,3.07
2023-04-26T10:40:55.329Z,2.90
2023-04-26T10:43:29.024Z,3.00
2023-04-26T10:45:58.638Z,2.93
2023-04-26T10:48:28.410Z,4.00
2023-04-26T10:51:01.543Z,2.67
2023-04-26T10:53:29.675Z,3.20
2023-04-26T10:55:57.292Z,3.30
2023-04-26T10:58:35.239Z,2.83
2023-04-26T11:01:16.513Z,3.30
2023-04-26T11:03:59.129Z,2.87
2023-04-26T11:06:28.904Z,2.60
2023-04-26T11:08:56.128Z,3.27
2023-04-26T11:11:27.159Z,2.80
2023-04-26T11:13:54.122Z,3.00
2023-04-26T11:16:21.036Z,3.07
2023-04-26T11:18:48.382Z,3.13
2023-04-26T11:21:18.193Z,3.07
2023-04-26T11:23:54.157Z,2.40
2023-04-26T11:26:21.145Z,2.73
2023-04-26T11:28:49.884Z,2.90
2023-04-26T11:31:19.359Z,2.87
2023-04-26T11:33:47.795Z,3.60
2023-04-26T11:36:17.175Z,3.30
2023-04-26T11:38:44.060Z,3.03
2023-04-26T11:41:11.539Z,2.80
2023-04-26T11:43:39.829Z,2.93
2023-04-26T11:46:08.558Z,3.37
2023-04-26T11:48:37.775Z,3.07
2023-04-26T11:51:07.835Z,3.80
2023-04-26T11:53:38.414Z,3.47
2023-04-26T11:56:26.869Z,3.00
2023-04-26T11:58:54.593Z,3.37
2023-04-26T12:01:29.578Z,3.00
2023-04-26T12:03:58.659Z,2.70
2023-04-26T12:06:46.305Z,3.30
2023-04-26T12:09:14.069Z,3.20
2023-04-26T12:11:41.288Z,2.80
2023-04-26T12:14:09.988Z,2.83
2023-04-26T12:16:37.642Z,3.60
2023-04-26T12:19:08.733Z,4.27
2023-04-26T12:21:43.356Z,3.83
2023-04-26T12:24:22.695Z,3.87
2023-04-26T12:26:49.691Z,3.27
2023-04-26T12:29:16.613Z,3.60
2023-04-26T12:31:43.640Z,3.60
2023-04-26T12:34:10.686Z,3.60
2023-04-26T12:36:39.062Z,3.30
2023-04-26T12:39:06.823Z,4.00
2023-04-26T12:41:34.095Z,3.73
2023-04-26T12:44:01.766Z,3.27
2023-04-26T12:46:28.685Z,3.27
2023-04-26T12:48:55.608Z,3.40
2023-04-26T12:51:22.656Z,3.30
2023-04-26T12:53:50.846Z,4.00
2023-04-26T12:56:17.814Z,2.90
2023-04-26T12:58:44.776Z,2.93
2023-04-26T13:01:13.870Z,3.10
2023-04-26T13:03:41.192Z,2.60
2023-04-26T13:06:08.327Z,2.97
2023-04-26T13:08:35.315Z,2.90
2023-04-26T13:11:02.314Z,4.00
2023-04-26T13:13:42.166Z,3.50
2023-04-26T13:16:10.711Z,3.20
2023-04-26T13:18:37.597Z,2.57
2023-04-26T13:21:04.828Z,2.80
2023-04-26T13:23:31.926Z,3.17
2023-04-26T13:25:59.100Z,2.70
2023-04-26T13:28:25.994Z,3.33
2023-04-26T13:30:53.308Z,2.60
2023-04-26T13:33:21.342Z,2.50
2023-04-26T13:35:48.476Z,3.40
2023-04-26T13:38:16.409Z,2.87
2023-04-26T13:40:44.092Z,3.10
2023-04-26T13:43:11.260Z,2.93
2023-04-26T13:45:38.819Z,3.40
2023-04-26T13:48:06.371Z,3.30
2023-04-26T13:50:35.329Z,3.27
2023-04-26T13:53:02.439Z,3.40
2023-04-26T13:55:29.996Z,3.90
2023-04-26T13:57:57.126Z,3.33
2023-04-26T14:00:24.114Z,3.50
2023-04-26T14:02:51.799Z,3.57
2023-04-26T14:05:18.992Z,3.73
2023-04-26T14:07:46.153Z,4.00
2023-04-26T14:10:13.403Z,4.50
2023-04-26T14:12:40.336Z,4.30
2023-04-26T14:15:07.773Z,4.00
2023-04-26T14:17:34.750Z,4.33
2023-04-26T14:20:01.911Z,4.23
2023-04-26T14:22:29.436Z,3.80
2023-04-26T14:24:56.622Z,3.80
2023-04-26T14:27:23.809Z,4.30
2023-04-26T14:29:51.141Z,4.37
2023-04-26T14:32:17.953Z,3.70
2023-04-26T14:34:45.025Z,4.33
2023-04-26T14:37:11.863Z,3.70
2023-04-26T14:39:39.092Z,3.47
2023-04-26T14:42:06.040Z,4.57
2023-04-26T14:44:33.560Z,4.30
2023-04-26T14:47:01.776Z,4.13
2023-04-26T14:49:28.683Z,4.07
2023-04-26T14:51:55.709Z,3.87
2023-04-26T14:54:22.670Z,4.43
2023-04-26T14:56:49.671Z,3.90
2023-04-26T14:59:16.614Z,4.30
2023-04-26T15:01:44.195Z,4.10
2023-04-26T15:04:11.343Z,3.50
2023-04-26T15:06:39.021Z,3.97
2023-04-26T15:09:08.725Z,4.10
2023-04-26T15:11:35.882Z,4.00
2023-04-26T15:14:02.819Z,3.27
2023-04-26T15:16:29.867Z,4.47
2023-04-26T15:18:56.734Z,4.20
2023-04-26T15:21:23.668Z,4.27
2023-04-26T15:23:50.579Z,3.80
2023-04-26T15:26:17.451Z,3.50
2023-04-26T15:28:44.351Z,3.73
2023-04-26T15:31:11.676Z,4.67
2023-04-26T15:33:38.615Z,4.27
2023-04-26T15:36:05.902Z,4.50
2023-04-26T15:38:35.136Z,6.77
2023-04-26T15:41:02.363Z,5.40
2023-04-26T15:43:29.350Z,4.20
2023-04-26T15:45:56.275Z,4.10
2023-04-26T15:48:23.272Z,3.90
2023-04-26T15:50:53.724Z,3.80
2023-04-26T15:53:21.859Z,3.70
2023-04-26T15:55:49.596Z,4.40
2023-04-26T15:58:17.173Z,4.50
2023-04-26T16:00:43.975Z,4.80
2023-04-26T16:03:10.989Z,4.73
2023-04-26T16:05:37.943Z,5.70
2023-04-26T16:08:06.272Z,4.60
2023-04-26T16:10:33.167Z,4.80
2023-04-26T16:13:00.041Z,5.33
2023-04-26T16:15:27.049Z,4.80
2023-04-26T16:17:54.666Z,4.10
2023-04-26T16:20:21.634Z,5.43
2023-04-26T16:22:49.845Z,4.60
2023-04-26T16:25:17.347Z,5.20
2023-04-26T16:27:44.654Z,4.93
2023-04-26T16:30:12.199Z,5.43
2023-04-26T16:32:39.233Z,5.47
2023-04-26T16:35:06.580Z,5.07
2023-04-26T16:37:33.664Z,5.30
2023-04-26T16:40:00.837Z,5.20
2023-04-26T16:42:30.248Z,5.53
2023-04-26T16:44:58.337Z,5.13
2023-04-26T16:47:26.586Z,4.97
2023-04-26T16:49:53.632Z,5.03
2023-04-26T16:52:20.543Z,5.53
2023-04-26T16:54:47.724Z,5.53
2023-04-26T16:57:14.573Z,5.93
2023-04-26T16:59:41.897Z,6.30
2023-04-26T17:02:08.869Z,5.20
2023-04-26T17:04:35.887Z,4.87
2023-04-26T17:07:03.063Z,5.43
2023-04-26T17:09:29.938Z,5.90
2023-04-26T17:11:56.768Z,4.63
2023-04-26T17:14:23.622Z,5.50
2023-04-26T17:16:50.648Z,5.00
2023-04-26T17:19:17.727Z,6.10
2023-04-26T17:21:44.917Z,5.00
2023-04-26T17:24:11.821Z,6.03
2023-04-26T17:26:38.972Z,5.47
2023-04-26T17:29:05.911Z,5.20
2023-04-26T17:31:32.732Z,5.67
2023-04-26T17:34:00.062Z,5.60
2023-04-26T17:36:27.906Z,5.50
2023-04-26T17:38:54.815Z,5.77
2023-04-26T17:41:24.709Z,5.60
2023-04-26T17:43:51.601Z,6.00
2023-04-26T17:46:18.525Z,6.00
2023-04-26T17:48:45.420Z,5.93
2023-04-26T17:51:13.154Z,5.60
2023-04-26T17:53:40.058Z,5.07
2023-04-26T17:56:07.690Z,6.00
2023-04-26T17:58:34.570Z,5.30
2023-04-26T18:01:01.663Z,5.53
2023-04-26T18:03:31.560Z,5.50
2023-04-26T18:05:58.622Z,5.70
2023-04-26T18:08:25.825Z,5.63
2023-04-26T18:10:54.053Z,5.80
2023-04-26T18:13:21.668Z,5.80
2023-04-26T18:15:49.161Z,5.60
2023-04-26T18:18:15.996Z,6.03
2023-04-26T18:20:43.228Z,5.53
2023-04-26T18:23:10.030Z,5.40
2023-04-26T18:25:36.887Z,6.87
2023-04-26T18:28:04.346Z,5.47
2023-04-26T18:30:31.253Z,5.67
2023-04-26T18:32:58.318Z,5.37
2023-04-26T18:35:25.363Z,5.53
2023-04-26T18:37:52.572Z,5.60
2023-04-26T18:40:19.614Z,5.73
2023-04-26T18:42:46.922Z,5.53
2023-04-26T18:45:14.499Z,5.17
2023-04-26T18:47:41.747Z,5.33
2023-04-26T18:50:08.940Z,6.03
2023-04-26T18:52:35.840Z,6.00
2023-04-26T18:55:03.043Z,5.30
2023-04-26T18:57:29.929Z,5.60
2023-04-26T18:59:57.360Z,5.40
2023-04-26T19:02:25.461Z,5.73
2023-04-26T19:04:53.255Z,7.07
2023-04-26T19:07:20.334Z,5.80
2023-04-26T19:09:54.165Z,6.27
2023-04-26T19:12:22.137Z,6.53
2023-04-26T19:14:49.009Z,5.33
2023-04-26T19:17:16.258Z,5.80
2023-04-26T19:19:43.463Z,5.97
2023-04-26T19:22:10.565Z,6.03
2023-04-26T19:24:37.499Z,5.40
2023-04-26T19:27:04.846Z,5.23
2023-04-26T19:29:31.663Z,5.90
2023-04-26T19:32:00.200Z,6.13
2023-04-26T19:34:28.000Z,6.03
2023-04-26T19:36:55.070Z,6.40
2023-04-26T19:39:23.597Z,6.43
2023-04-26T19:41:50.930Z,6.30
2023-04-26T19:44:18.118Z,6.30
2023-04-26T19:46:45.112Z,5.90
2023-04-26T19:49:12.453Z,5.63
2023-04-26T19:51:39.297Z,5.50
2023-04-26T19:54:06.679Z,6.00
2023-04-26T19:56:33.528Z,6.30
2023-04-26T19:59:00.634Z,6.50
2023-04-26T20:01:27.904Z,6.40
2023-04-26T20:03:55.310Z,5.77
2023-04-26T20:06:22.409Z,5.47
2023-04-26T20:08:49.920Z,5.67
2023-04-26T20:11:17.826Z,5.80
2023-04-26T20:13:44.967Z,6.07
2023-04-26T20:16:12.759Z,5.83
2023-04-26T20:18:39.776Z,5.90
2023-04-26T20:21:06.694Z,5.63
2023-04-26T20:23:33.599Z,5.60
2023-04-26T20:26:01.022Z,5.67
2023-04-26T20:28:27.956Z,5.00
2023-04-26T20:30:54.872Z,6.30
2023-04-26T20:33:21.772Z,5.07
2023-04-26T20:35:48.586Z,5.57
2023-04-26T20:38:15.481Z,6.13
2023-04-26T20:40:42.582Z,4.70
2023-04-26T20:43:09.893Z,6.30
2023-04-26T20:45:37.112Z,5.00
2023-04-26T20:48:04.634Z,5.80
2023-04-26T20:50:31.481Z,6.47
2023-04-26T20:52:58.464Z,5.43
2023-04-26T20:55:25.388Z,5.30
2023-04-26T20:57:52.268Z,5.67
2023-04-26T21:00:19.599Z,5.50
2023-04-26T21:02:46.591Z,5.10
2023-04-26T21:05:13.557Z,6.20
2023-04-26T21:07:40.683Z,5.60
2023-04-26T21:10:08.564Z,5.90
2023-04-26T21:12:35.537Z,5.27
2023-04-26T21:15:02.923Z,5.57
2023-04-26T21:17:29.952Z,6.13
2023-04-26T21:19:57.118Z,5.60
2023-04-26T21:22:24.357Z,5.67
2023-04-26T21:24:52.405Z,5.10
2023-04-26T21:27:19.293Z,5.50
2023-04-26T21:29:46.547Z,5.97
2023-04-26T21:32:13.478Z,6.03
2023-04-26T21:34:40.711Z,5.73
2023-04-26T21:37:07.581Z,5.57
2023-04-26T21:39:34.483Z,5.63
2023-04-26T21:42:03.465Z,5.67
2023-04-26T21:44:30.433Z,5.40
2023-04-26T21:46:57.303Z,5.27
2023-04-26T21:49:24.473Z,5.17
2023-04-26T21:51:51.777Z,5.60
2023-04-26T21:54:18.570Z,5.57
2023-04-26T21:56:45.848Z,5.50
2023-04-26T21:59:14.500Z,5.27
2023-04-26T22:01:41.510Z,5.00
2023-04-26T22:04:08.901Z,6.10
2023-04-26T22:06:36.015Z,6.67
2023-04-26T22:09:03.693Z,5.87
2023-04-26T22:11:30.533Z,5.60
2023-04-26T22:13:57.588Z,5.57
2023-04-26T22:16:24.448Z,6.33
2023-04-26T22:18:51.310Z,6.10
2023-04-26T22:21:18.209Z,5.83
2023-04-26T22:23:45.090Z,6.30
2023-04-26T22:26:11.959Z,5.80
2023-04-26T22:28:38.777Z,5.73
2023-04-26T22:31:05.741Z,6.10
2023-04-26T22:33:32.634Z,6.73
2023-04-26T22:35:59.600Z,7.47
2023-04-26T22:38:26.765Z,7.30
2023-04-26T22:40:53.946Z,7.00
2023-04-26T22:43:22.036Z,6.93
2023-04-26T22:45:48.934Z,6.40
2023-04-26T22:48:15.836Z,6.67
2023-04-26T22:50:43.214Z,5.87
2023-04-26T22:53:10.247Z,7.23
2023-04-26T22:55:37.097Z,6.73
2023-04-26T22:58:03.943Z,6.63
2023-04-26T23:00:31.375Z,6.23
2023-04-26T23:02:58.314Z,6.97
2023-04-26T23:05:25.595Z,6.00
2023-04-26T23:07:52.590Z,6.83
2023-04-26T23:10:19.579Z,5.63
2023-04-26T23:12:46.391Z,7.17
2023-04-26T23:15:13.644Z,6.80
2023-04-26T23:17:41.618Z,7.17
2023-04-26T23:20:12.459Z,6.93
2023-04-26T23:22:43.385Z,5.93
2023-04-26T23:25:10.881Z,6.50
2023-04-26T23:27:38.645Z,6.40
2023-04-26T23:30:06.699Z,6.13
2023-04-26T23:32:33.850Z,6.63
2023-04-26T23:35:01.245Z,6.90
2023-04-26T23:37:28.113Z,8.33
2023-04-26T23:39:55.907Z,6.60
2023-04-26T23:42:22.885Z,7.70
2023-04-26T23:44:50.035Z,7.00
2023-04-26T23:47:17.017Z,6.43
2023-04-26T23:49:43.859Z,7.10
2023-04-26T23:52:10.760Z,6.97
2023-04-26T23:54:37.709Z,7.63
2023-04-26T23:57:04.905Z,6.23
2023-04-26T23:59:31.803Z,7.67
